sensor_id;sensor_type;location;lat;lon;timestamp;pressure;altitude;pressure_sealevel;temperature;humidity
27014;BME280;14556;52.222;4.510;2022-09-02T00:01:53;101607.81;;;17.15;57.70
27014;BME280;14556;52.222;4.510;2022-09-02T00:04:23;101607.81;;;17.15;57.58
27014;BME280;14556;52.222;4.510;2022-09-02T00:06:51;101574.38;;;16.91;57.87
27014;BME280;14556;52.222;4.510;2022-09-02T00:09:21;101611.22;;;17.11;57.91
27014;BME280;14556;52.222;4.510;2022-09-02T00:11:49;101608.50;;;17.11;58.00
27014;BME280;14556;52.222;4.510;2022-09-02T00:14:20;101603.25;;;17.09;58.01
27014;BME280;14556;52.222;4.510;2022-09-02T00:16:48;101602.91;;;17.06;58.35
27014;BME280;14556;52.222;4.510;2022-09-02T00:19:23;101585.41;;;16.89;58.86
27014;BME280;14556;52.222;4.510;2022-09-02T00:21:52;101599.44;;;16.98;58.77
27014;BME280;14556;52.222;4.510;2022-09-02T00:24:20;101602.38;;;16.97;59.15
27014;BME280;14556;52.222;4.510;2022-09-02T00:26:46;101598.47;;;16.92;58.87
27014;BME280;14556;52.222;4.510;2022-09-02T00:29:13;101603.88;;;16.92;59.71
27014;BME280;14556;52.222;4.510;2022-09-02T00:31:42;101599.53;;;16.91;60.06
27014;BME280;14556;52.222;4.510;2022-09-02T00:34:09;101602.81;;;16.94;59.48
27014;BME280;14556;52.222;4.510;2022-09-02T00:36:36;101597.69;;;16.85;59.51
27014;BME280;14556;52.222;4.510;2022-09-02T00:39:05;101597.31;;;16.82;59.75
27014;BME280;14556;52.222;4.510;2022-09-02T00:41:33;101590.31;;;16.74;60.19
27014;BME280;14556;52.222;4.510;2022-09-02T00:44:04;101593.03;;;16.74;60.07
27014;BME280;14556;52.222;4.510;2022-09-02T00:46:32;101588.44;;;16.74;60.27
27014;BME280;14556;52.222;4.510;2022-09-02T00:49:41;101580.16;;;16.69;60.32
27014;BME280;14556;52.222;4.510;2022-09-02T00:52:23;101582.47;;;16.65;61.24
27014;BME280;14556;52.222;4.510;2022-09-02T00:55:00;101580.22;;;16.62;61.25
27014;BME280;14556;52.222;4.510;2022-09-02T00:57:32;101567.63;;;16.56;61.12
27014;BME280;14556;52.222;4.510;2022-09-02T01:00:10;101580.47;;;16.61;61.15
27014;BME280;14556;52.222;4.510;2022-09-02T01:02:40;101577.81;;;16.54;61.18
27014;BME280;14556;52.222;4.510;2022-09-02T01:05:10;101577.44;;;16.50;61.43
27014;BME280;14556;52.222;4.510;2022-09-02T01:07:38;101574.72;;;16.50;62.07
27014;BME280;14556;52.222;4.510;2022-09-02T01:10:08;101577.03;;;16.47;61.93
27014;BME280;14556;52.222;4.510;2022-09-02T01:12:36;101573.94;;;16.43;62.14
27014;BME280;14556;52.222;4.510;2022-09-02T01:15:05;101559.50;;;16.30;62.64
27014;BME280;14556;52.222;4.510;2022-09-02T01:17:32;101573.41;;;16.34;62.90
27014;BME280;14556;52.222;4.510;2022-09-02T01:20:09;101571.97;;;16.31;63.54
27014;BME280;14556;52.222;4.510;2022-09-02T01:22:38;101568.00;;;16.34;62.80
27014;BME280;14556;52.222;4.510;2022-09-02T01:25:10;101566.75;;;16.37;63.13
27014;BME280;14556;52.222;4.510;2022-09-02T01:27:37;101562.38;;;16.36;63.21
27014;BME280;14556;52.222;4.510;2022-09-02T01:30:06;101557.91;;;16.23;63.05
27014;BME280;14556;52.222;4.510;2022-09-02T01:32:33;101571.41;;;16.23;63.59
27014;BME280;14556;52.222;4.510;2022-09-02T01:35:00;101565.00;;;16.17;64.02
27014;BME280;14556;52.222;4.510;2022-09-02T01:37:26;101560.06;;;16.14;64.11
27014;BME280;14556;52.222;4.510;2022-09-02T01:39:53;101562.31;;;16.17;64.01
27014;BME280;14556;52.222;4.510;2022-09-02T01:42:21;101553.38;;;16.16;63.85
27014;BME280;14556;52.222;4.510;2022-09-02T01:44:47;101561.28;;;16.18;64.54
27014;BME280;14556;52.222;4.510;2022-09-02T01:47:17;101556.31;;;16.15;64.25
27014;BME280;14556;52.222;4.510;2022-09-02T01:49:44;101548.88;;;16.10;64.42
27014;BME280;14556;52.222;4.510;2022-09-02T01:52:13;101551.78;;;16.09;64.46
27014;BME280;14556;52.222;4.510;2022-09-02T01:54:39;101552.22;;;16.05;64.57
27014;BME280;14556;52.222;4.510;2022-09-02T01:57:07;101547.28;;;16.02;64.39
27014;BME280;14556;52.222;4.510;2022-09-02T01:59:34;101551.22;;;16.00;64.61
27014;BME280;14556;52.222;4.510;2022-09-02T02:02:00;101544.78;;;16.01;64.89
27014;BME280;14556;52.222;4.510;2022-09-02T02:04:27;101542.31;;;15.92;65.02
27014;BME280;14556;52.222;4.510;2022-09-02T02:06:54;101544.41;;;15.90;65.36
27014;BME280;14556;52.222;4.510;2022-09-02T02:09:22;101539.44;;;15.87;65.41
27014;BME280;14556;52.222;4.510;2022-09-02T02:11:49;101544.00;;;15.87;65.96
27014;BME280;14556;52.222;4.510;2022-09-02T02:14:16;101538.88;;;15.78;66.29
27014;BME280;14556;52.222;4.510;2022-09-02T02:16:43;101539.78;;;15.65;66.68
27014;BME280;14556;52.222;4.510;2022-09-02T02:19:09;101537.50;;;15.62;67.24
27014;BME280;14556;52.222;4.510;2022-09-02T02:21:36;101544.16;;;15.59;67.84
27014;BME280;14556;52.222;4.510;2022-09-02T02:24:03;101530.47;;;15.61;67.54
27014;BME280;14556;52.222;4.510;2022-09-02T02:26:30;101535.84;;;15.61;67.82
27014;BME280;14556;52.222;4.510;2022-09-02T02:28:58;101543.81;;;15.49;68.49
27014;BME280;14556;52.222;4.510;2022-09-02T02:31:25;101535.53;;;15.44;68.95
27014;BME280;14556;52.222;4.510;2022-09-02T02:33:52;101527.03;;;15.40;69.64
27014;BME280;14556;52.222;4.510;2022-09-02T02:36:18;101525.59;;;15.38;69.73
27014;BME280;14556;52.222;4.510;2022-09-02T02:38:45;101518.38;;;15.31;70.22
27014;BME280;14556;52.222;4.510;2022-09-02T02:41:13;101519.81;;;15.27;70.70
27014;BME280;14556;52.222;4.510;2022-09-02T02:43:41;101534.75;;;15.30;70.85
27014;BME280;14556;52.222;4.510;2022-09-02T02:46:07;101528.75;;;15.28;71.19
27014;BME280;14556;52.222;4.510;2022-09-02T02:48:35;101525.66;;;15.24;71.62
27014;BME280;14556;52.222;4.510;2022-09-02T02:51:02;101533.75;;;15.17;71.99
27014;BME280;14556;52.222;4.510;2022-09-02T02:53:29;101523.00;;;15.10;72.59
27014;BME280;14556;52.222;4.510;2022-09-02T02:55:58;101533.16;;;15.08;73.21
27014;BME280;14556;52.222;4.510;2022-09-02T02:58:25;101534.00;;;15.09;73.21
27014;BME280;14556;52.222;4.510;2022-09-02T03:00:51;101530.03;;;15.11;74.03
27014;BME280;14556;52.222;4.510;2022-09-02T03:03:18;101530.03;;;15.11;73.69
27014;BME280;14556;52.222;4.510;2022-09-02T03:05:46;101518.28;;;15.06;73.70
27014;BME280;14556;52.222;4.510;2022-09-02T03:08:12;101518.91;;;14.94;74.24
27014;BME280;14556;52.222;4.510;2022-09-02T03:10:40;101523.69;;;14.92;74.71
27014;BME280;14556;52.222;4.510;2022-09-02T03:13:09;101519.97;;;14.86;74.51
27014;BME280;14556;52.222;4.510;2022-09-02T03:15:37;101521.84;;;14.86;74.72
27014;BME280;14556;52.222;4.510;2022-09-02T03:18:04;101518.53;;;14.84;74.19
27014;BME280;14556;52.222;4.510;2022-09-02T03:20:31;101515.38;;;14.80;74.04
27014;BME280;14556;52.222;4.510;2022-09-02T03:22:59;101520.38;;;14.83;74.15
27014;BME280;14556;52.222;4.510;2022-09-02T03:25:28;101499.47;;;14.72;73.73
27014;BME280;14556;52.222;4.510;2022-09-02T03:28:02;101516.25;;;14.81;74.23
27014;BME280;14556;52.222;4.510;2022-09-02T03:30:30;101517.47;;;14.78;74.23
27014;BME280;14556;52.222;4.510;2022-09-02T03:32:58;101511.66;;;14.74;74.42
27014;BME280;14556;52.222;4.510;2022-09-02T03:35:30;101511.91;;;14.66;74.83
27014;BME280;14556;52.222;4.510;2022-09-02T03:37:58;101514.38;;;14.68;74.67
27014;BME280;14556;52.222;4.510;2022-09-02T03:40:26;101509.63;;;14.70;74.64
27014;BME280;14556;52.222;4.510;2022-09-02T03:42:54;101507.13;;;14.68;74.06
27014;BME280;14556;52.222;4.510;2022-09-02T03:45:26;101504.25;;;14.63;74.79
27014;BME280;14556;52.222;4.510;2022-09-02T03:47:52;101505.28;;;14.62;75.41
27014;BME280;14556;52.222;4.510;2022-09-02T03:50:27;101502.59;;;14.55;75.54
27014;BME280;14556;52.222;4.510;2022-09-02T03:52:56;101505.47;;;14.54;76.25
27014;BME280;14556;52.222;4.510;2022-09-02T03:55:23;101505.69;;;14.52;77.39
27014;BME280;14556;52.222;4.510;2022-09-02T03:57:49;101503.22;;;14.44;77.47
27014;BME280;14556;52.222;4.510;2022-09-02T04:00:19;101504.28;;;14.36;78.55
27014;BME280;14556;52.222;4.510;2022-09-02T04:02:47;101506.75;;;14.37;78.43
27014;BME280;14556;52.222;4.510;2022-09-02T04:05:16;101495.16;;;14.37;78.91
27014;BME280;14556;52.222;4.510;2022-09-02T04:07:42;101500.53;;;14.37;78.60
27014;BME280;14556;52.222;4.510;2022-09-02T04:10:13;101490.84;;;14.36;78.53
27014;BME280;14556;52.222;4.510;2022-09-02T04:12:40;101498.66;;;14.31;80.29
27014;BME280;14556;52.222;4.510;2022-09-02T04:15:08;101493.50;;;14.29;79.87
27014;BME280;14556;52.222;4.510;2022-09-02T04:17:36;101493.69;;;14.34;79.39
27014;BME280;14556;52.222;4.510;2022-09-02T04:20:05;101488.94;;;14.36;79.50
27014;BME280;14556;52.222;4.510;2022-09-02T04:22:32;101481.09;;;14.35;79.97
27014;BME280;14556;52.222;4.510;2022-09-02T04:24:59;101481.72;;;14.37;80.00
27014;BME280;14556;52.222;4.510;2022-09-02T04:27:26;101472.59;;;14.31;79.75
27014;BME280;14556;52.222;4.510;2022-09-02T04:29:52;101462.06;;;14.23;79.54
27014;BME280;14556;52.222;4.510;2022-09-02T04:32:19;101475.50;;;14.36;79.25
27014;BME280;14556;52.222;4.510;2022-09-02T04:34:47;101473.22;;;14.33;79.99
27014;BME280;14556;52.222;4.510;2022-09-02T04:37:15;101478.38;;;14.35;80.79
27014;BME280;14556;52.222;4.510;2022-09-02T04:39:42;101479.22;;;14.29;81.31
27014;BME280;14556;52.222;4.510;2022-09-02T04:42:08;101479.22;;;14.29;81.58
27014;BME280;14556;52.222;4.510;2022-09-02T04:44:35;101472.81;;;14.23;81.81
27014;BME280;14556;52.222;4.510;2022-09-02T04:47:01;101480.06;;;14.16;83.48
27014;BME280;14556;52.222;4.510;2022-09-02T04:49:28;101484.22;;;14.11;82.78
27014;BME280;14556;52.222;4.510;2022-09-02T04:51:58;101480.28;;;14.07;83.31
27014;BME280;14556;52.222;4.510;2022-09-02T04:54:25;101477.56;;;14.07;83.61
27014;BME280;14556;52.222;4.510;2022-09-02T04:56:52;101487.50;;;14.07;83.71
27014;BME280;14556;52.222;4.510;2022-09-02T04:59:19;101482.34;;;14.05;83.55
27014;BME280;14556;52.222;4.510;2022-09-02T05:01:46;101480.06;;;14.02;83.88
27014;BME280;14556;52.222;4.510;2022-09-02T05:04:13;101479.00;;;14.03;83.96
27014;BME280;14556;52.222;4.510;2022-09-02T05:06:40;101481.09;;;14.08;83.64
27014;BME280;14556;52.222;4.510;2022-09-02T05:09:09;101476.16;;;14.11;83.64
27014;BME280;14556;52.222;4.510;2022-09-02T05:11:36;101476.16;;;14.11;83.24
27014;BME280;14556;52.222;4.510;2022-09-02T05:14:04;101478.19;;;14.09;84.25
27014;BME280;14556;52.222;4.510;2022-09-02T05:16:35;101481.50;;;14.05;84.14
27014;BME280;14556;52.222;4.510;2022-09-02T05:19:04;101483.38;;;14.04;85.04
27014;BME280;14556;52.222;4.510;2022-09-02T05:21:31;101486.44;;;14.01;85.30
27014;BME280;14556;52.222;4.510;2022-09-02T05:23:59;101480.28;;;14.00;85.42
27014;BME280;14556;52.222;4.510;2022-09-02T05:26:26;101481.28;;;13.99;85.74
27014;BME280;14556;52.222;4.510;2022-09-02T05:28:52;101479.00;;;13.96;85.64
27014;BME280;14556;52.222;4.510;2022-09-02T05:31:20;101481.69;;;14.03;85.73
27014;BME280;14556;52.222;4.510;2022-09-02T05:33:47;101485.66;;;14.00;86.23
27014;BME280;14556;52.222;4.510;2022-09-02T05:36:16;101490.19;;;14.00;86.40
27014;BME280;14556;52.222;4.510;2022-09-02T05:38:44;101489.19;;;14.08;86.43
27014;BME280;14556;52.222;4.510;2022-09-02T05:41:21;101482.53;;;14.10;85.82
27014;BME280;14556;52.222;4.510;2022-09-02T05:43:51;101466.59;;;14.09;85.57
27014;BME280;14556;52.222;4.510;2022-09-02T05:46:20;101488.53;;;14.19;85.89
27014;BME280;14556;52.222;4.510;2022-09-02T05:48:49;101480.69;;;14.18;86.31
27014;BME280;14556;52.222;4.510;2022-09-02T05:51:55;101485.84;;;14.26;85.35
27014;BME280;14556;52.222;4.510;2022-09-02T05:54:25;101473.66;;;14.30;86.02
27014;BME280;14556;52.222;4.510;2022-09-02T05:56:56;101478.81;;;14.38;85.56
27014;BME280;14556;52.222;4.510;2022-09-02T05:59:24;101476.94;;;14.39;85.77
27014;BME280;14556;52.222;4.510;2022-09-02T06:01:53;101473.63;;;14.37;86.11
27014;BME280;14556;52.222;4.510;2022-09-02T06:04:20;101470.31;;;14.42;87.06
27014;BME280;14556;52.222;4.510;2022-09-02T06:06:48;101472.56;;;14.45;86.98
27014;BME280;14556;52.222;4.510;2022-09-02T06:09:18;101467.81;;;14.47;87.05
27014;BME280;14556;52.222;4.510;2022-09-02T06:11:45;101472.97;;;14.48;87.14
27014;BME280;14556;52.222;4.510;2022-09-02T06:14:22;101467.78;;;14.54;87.10
27014;BME280;14556;52.222;4.510;2022-09-02T06:16:51;101466.56;;;14.56;87.27
27014;BME280;14556;52.222;4.510;2022-09-02T06:19:20;101451.47;;;14.42;87.34
27014;BME280;14556;52.222;4.510;2022-09-02T06:21:47;101472.16;;;14.55;87.71
27014;BME280;14556;52.222;4.510;2022-09-02T06:24:14;101461.81;;;14.58;88.27
27014;BME280;14556;52.222;4.510;2022-09-02T06:26:41;101463.44;;;14.59;87.90
27014;BME280;14556;52.222;4.510;2022-09-02T06:29:09;101472.34;;;14.67;87.36
27014;BME280;14556;52.222;4.510;2022-09-02T06:31:38;101466.34;;;14.65;88.48
27014;BME280;14556;52.222;4.510;2022-09-02T06:34:05;101464.47;;;14.72;87.75
27014;BME280;14556;52.222;4.510;2022-09-02T06:36:32;101461.34;;;14.82;87.20
27014;BME280;14556;52.222;4.510;2022-09-02T06:38:59;101451.16;;;14.91;85.96
27014;BME280;14556;52.222;4.510;2022-09-02T06:41:29;101445.56;;;14.92;86.24
27014;BME280;14556;52.222;4.510;2022-09-02T06:43:58;101457.28;;;15.11;85.35
27014;BME280;14556;52.222;4.510;2022-09-02T06:46:31;101455.16;;;15.27;82.44
27014;BME280;14556;52.222;4.510;2022-09-02T06:48:59;101449.72;;;15.41;82.67
27014;BME280;14556;52.222;4.510;2022-09-02T06:51:34;101453.31;;;15.60;80.18
27014;BME280;14556;52.222;4.510;2022-09-02T06:54:02;101454.06;;;15.67;79.85
27014;BME280;14556;52.222;4.510;2022-09-02T06:56:29;101451.53;;;15.79;78.89
27014;BME280;14556;52.222;4.510;2022-09-02T06:58:57;101447.28;;;15.90;77.16
27014;BME280;14556;52.222;4.510;2022-09-02T07:01:27;101455.09;;;16.05;76.26
27014;BME280;14556;52.222;4.510;2022-09-02T07:03:54;101443.63;;;16.10;74.12
27014;BME280;14556;52.222;4.510;2022-09-02T07:06:41;101440.16;;;16.28;71.94
27014;BME280;14556;52.222;4.510;2022-09-02T07:09:10;101440.19;;;16.22;72.75
27014;BME280;14556;52.222;4.510;2022-09-02T07:11:37;101434.97;;;16.27;72.77
27014;BME280;14556;52.222;4.510;2022-09-02T07:14:05;101428.91;;;16.31;72.21
27014;BME280;14556;52.222;4.510;2022-09-02T07:16:40;101403.00;;;16.24;70.61
27014;BME280;14556;52.222;4.510;2022-09-02T07:19:09;101438.06;;;16.49;70.38
27014;BME280;14556;52.222;4.510;2022-09-02T07:21:42;101426.22;;;16.50;69.25
27014;BME280;14556;52.222;4.510;2022-09-02T07:24:11;101436.13;;;16.57;69.10
27014;BME280;14556;52.222;4.510;2022-09-02T07:26:38;101439.47;;;16.71;69.27
27014;BME280;14556;52.222;4.510;2022-09-02T07:29:06;101430.88;;;16.80;68.46
27014;BME280;14556;52.222;4.510;2022-09-02T07:31:40;101436.41;;;16.86;69.26
27014;BME280;14556;52.222;4.510;2022-09-02T07:34:07;101423.88;;;16.91;68.44
27014;BME280;14556;52.222;4.510;2022-09-02T07:36:36;101424.16;;;17.02;67.34
27014;BME280;14556;52.222;4.510;2022-09-02T07:39:06;101410.66;;;17.02;68.50
27014;BME280;14556;52.222;4.510;2022-09-02T07:41:33;101420.34;;;17.10;67.20
27014;BME280;14556;52.222;4.510;2022-09-02T07:44:01;101424.47;;;17.12;68.79
27014;BME280;14556;52.222;4.510;2022-09-02T07:46:27;101415.13;;;17.08;67.15
27014;BME280;14556;52.222;4.510;2022-09-02T07:49:02;101411.84;;;17.06;66.91
27014;BME280;14556;52.222;4.510;2022-09-02T07:51:35;101419.59;;;17.21;67.72
27014;BME280;14556;52.222;4.510;2022-09-02T07:54:03;101413.75;;;17.36;68.47
27014;BME280;14556;52.222;4.510;2022-09-02T07:56:31;101413.16;;;17.46;65.67
27014;BME280;14556;52.222;4.510;2022-09-02T07:58:57;101411.53;;;17.45;66.26
27014;BME280;14556;52.222;4.510;2022-09-02T08:01:24;101416.97;;;17.57;66.09
27014;BME280;14556;52.222;4.510;2022-09-02T08:03:51;101416.75;;;17.71;66.11
27014;BME280;14556;52.222;4.510;2022-09-02T08:06:18;101417.94;;;17.87;64.75
27014;BME280;14556;52.222;4.510;2022-09-02T08:09:02;101414.78;;;18.02;64.82
27014;BME280;14556;52.222;4.510;2022-09-02T08:11:29;101413.28;;;18.18;64.31
27014;BME280;14556;52.222;4.510;2022-09-02T08:13:57;101409.16;;;18.40;64.05
27014;BME280;14556;52.222;4.510;2022-09-02T08:16:24;101408.06;;;18.41;63.05
27014;BME280;14556;52.222;4.510;2022-09-02T08:18:51;101401.25;;;18.38;62.74
27014;BME280;14556;52.222;4.510;2022-09-02T08:21:17;101408.66;;;18.43;62.32
27014;BME280;14556;52.222;4.510;2022-09-02T08:23:44;101394.88;;;18.44;63.63
27014;BME280;14556;52.222;4.510;2022-09-02T08:26:13;101391.69;;;18.59;62.32
27014;BME280;14556;52.222;4.510;2022-09-02T08:28:39;101402.19;;;18.56;62.49
27014;BME280;14556;52.222;4.510;2022-09-02T08:31:06;101404.31;;;18.83;62.18
27014;BME280;14556;52.222;4.510;2022-09-02T08:33:33;101396.88;;;18.90;62.32
27014;BME280;14556;52.222;4.510;2022-09-02T08:36:07;101384.31;;;19.13;61.38
27014;BME280;14556;52.222;4.510;2022-09-02T08:38:36;101398.41;;;19.27;59.92
27014;BME280;14556;52.222;4.510;2022-09-02T08:41:22;101407.75;;;19.19;60.23
27014;BME280;14556;52.222;4.510;2022-09-02T08:43:54;101374.25;;;18.96;60.28
27014;BME280;14556;52.222;4.510;2022-09-02T08:46:23;101393.56;;;19.29;60.41
27014;BME280;14556;52.222;4.510;2022-09-02T08:49:05;101381.81;;;19.58;59.82
27014;BME280;14556;52.222;4.510;2022-09-02T08:51:39;101385.19;;;19.65;59.47
27014;BME280;14556;52.222;4.510;2022-09-02T08:54:21;101360.19;;;19.63;58.71
27014;BME280;14556;52.222;4.510;2022-09-02T08:56:51;101384.34;;;19.99;60.37
27014;BME280;14556;52.222;4.510;2022-09-02T08:59:20;101380.31;;;20.19;57.43
27014;BME280;14556;52.222;4.510;2022-09-02T09:02:15;101392.13;;;20.30;57.22
27014;BME280;14556;52.222;4.510;2022-09-02T09:07:36;101374.94;;;20.24;57.89
27014;BME280;14556;52.222;4.510;2022-09-02T09:10:15;101374.50;;;20.55;57.16
27014;BME280;14556;52.222;4.510;2022-09-02T09:12:58;101353.03;;;20.81;55.80
27014;BME280;14556;52.222;4.510;2022-09-02T09:19:13;101372.63;;;21.06;55.80
27014;BME280;14556;52.222;4.510;2022-09-02T09:21:41;101369.91;;;21.06;55.47
27014;BME280;14556;52.222;4.510;2022-09-02T09:26:54;101363.19;;;21.13;54.97
27014;BME280;14556;52.222;4.510;2022-09-02T09:29:20;101362.84;;;21.05;55.98
27014;BME280;14556;52.222;4.510;2022-09-02T09:31:54;101364.28;;;21.18;55.59
27014;BME280;14556;52.222;4.510;2022-09-02T09:34:21;101370.69;;;21.34;55.48
27014;BME280;14556;52.222;4.510;2022-09-02T09:36:53;101362.47;;;21.61;54.35
27014;BME280;14556;52.222;4.510;2022-09-02T09:39:28;101357.72;;;21.79;54.36
27014;BME280;14556;52.222;4.510;2022-09-02T09:42:01;101355.94;;;21.57;53.70
27014;BME280;14556;52.222;4.510;2022-09-02T09:44:43;101359.91;;;21.82;54.46
27014;BME280;14556;52.222;4.510;2022-09-02T09:47:22;101348.75;;;21.84;53.90
27014;BME280;14556;52.222;4.510;2022-09-02T09:49:52;101360.16;;;22.29;52.53
27014;BME280;14556;52.222;4.510;2022-09-02T09:52:25;101354.50;;;22.36;52.78
27014;BME280;14556;52.222;4.510;2022-09-02T09:57:39;101352.56;;;22.37;52.81
27014;BME280;14556;52.222;4.510;2022-09-02T10:00:18;101355.06;;;21.90;53.40
27014;BME280;14556;52.222;4.510;2022-09-02T10:02:50;101362.66;;;21.88;54.29
27014;BME280;14556;52.222;4.510;2022-09-02T10:08:02;101353.78;;;21.65;54.57
27014;BME280;14556;52.222;4.510;2022-09-02T10:10:54;101354.50;;;21.88;54.88
27014;BME280;14556;52.222;4.510;2022-09-02T10:13:24;101324.84;;;21.91;53.69
27014;BME280;14556;52.222;4.510;2022-09-02T10:19:08;101342.59;;;21.99;53.78
27014;BME280;14556;52.222;4.510;2022-09-02T10:27:24;101352.31;;;21.84;55.59
27014;BME280;14556;52.222;4.510;2022-09-02T10:30:07;101357.66;;;21.74;54.85
27014;BME280;14556;52.222;4.510;2022-09-02T10:33:15;101350.44;;;21.90;55.82
27014;BME280;14556;52.222;4.510;2022-09-02T10:35:46;101338.59;;;22.22;53.92
27014;BME280;14556;52.222;4.510;2022-09-02T10:41:04;101334.06;;;22.44;53.26
27014;BME280;14556;52.222;4.510;2022-09-02T10:43:52;101317.75;;;22.54;53.13
27014;BME280;14556;52.222;4.510;2022-09-02T10:46:23;101325.44;;;22.73;52.93
27014;BME280;14556;52.222;4.510;2022-09-02T10:49:01;101325.44;;;22.73;52.71
27014;BME280;14556;52.222;4.510;2022-09-02T10:57:33;101312.09;;;22.87;53.15
27014;BME280;14556;52.222;4.510;2022-09-02T11:00:12;101321.13;;;22.98;52.57
27014;BME280;14556;52.222;4.510;2022-09-02T11:03:00;101322.22;;;23.34;52.00
27014;BME280;14556;52.222;4.510;2022-09-02T11:08:07;101282.13;;;23.24;50.86
27014;BME280;14556;52.222;4.510;2022-09-02T11:11:02;101314.00;;;23.65;50.38
27014;BME280;14556;52.222;4.510;2022-09-02T11:13:39;101307.97;;;23.78;51.26
27014;BME280;14556;52.222;4.510;2022-09-02T11:16:37;101305.97;;;24.00;50.20
27014;BME280;14556;52.222;4.510;2022-09-02T11:19:13;101301.84;;;24.13;49.94
27014;BME280;14556;52.222;4.510;2022-09-02T11:22:02;101295.84;;;24.11;49.41
27014;BME280;14556;52.222;4.510;2022-09-02T11:24:43;101291.44;;;24.15;49.21
27014;BME280;14556;52.222;4.510;2022-09-02T11:27:28;101284.44;;;23.93;49.94
27014;BME280;14556;52.222;4.510;2022-09-02T11:30:36;101300.22;;;24.07;50.74
27014;BME280;14556;52.222;4.510;2022-09-02T11:36:02;101280.44;;;24.36;49.12
27014;BME280;14556;52.222;4.510;2022-09-02T11:38:40;101267.66;;;24.21;49.70
27014;BME280;14556;52.222;4.510;2022-09-02T11:41:29;101272.03;;;24.27;49.63
27014;BME280;14556;52.222;4.510;2022-09-02T11:46:57;101274.34;;;24.49;48.84
27014;BME280;14556;52.222;4.510;2022-09-02T11:49:50;101258.56;;;24.36;49.54
27014;BME280;14556;52.222;4.510;2022-09-02T11:55:09;101250.34;;;24.41;49.26
27014;BME280;14556;52.222;4.510;2022-09-02T11:57:42;101261.94;;;24.62;48.78
27014;BME280;14556;52.222;4.510;2022-09-02T12:00:25;101257.78;;;24.70;48.50
27014;BME280;14556;52.222;4.510;2022-09-02T12:03:11;101252.66;;;24.63;48.42
27014;BME280;14556;52.222;4.510;2022-09-02T12:06:12;101249.63;;;24.65;48.70
27014;BME280;14556;52.222;4.510;2022-09-02T12:11:08;101248.22;;;24.68;47.94
27014;BME280;14556;52.222;4.510;2022-09-02T12:13:40;101241.91;;;24.72;47.82
27014;BME280;14556;52.222;4.510;2022-09-02T12:18:38;101235.28;;;24.79;46.06
27014;BME280;14556;52.222;4.510;2022-09-02T12:21:12;101232.34;;;24.70;44.88
27014;BME280;14556;52.222;4.510;2022-09-02T12:26:16;101208.56;;;24.70;44.84
27014;BME280;14556;52.222;4.510;2022-09-02T12:28:45;101224.06;;;24.80;44.99
27014;BME280;14556;52.222;4.510;2022-09-02T12:44:36;101215.59;;;24.77;42.86
27014;BME280;14556;52.222;4.510;2022-09-02T12:47:25;101212.59;;;24.78;44.37
27014;BME280;14556;52.222;4.510;2022-09-02T12:50:06;101192.16;;;24.70;43.26
27014;BME280;14556;52.222;4.510;2022-09-02T12:52:38;101200.81;;;24.83;41.66
27014;BME280;14556;52.222;4.510;2022-09-02T12:57:46;101181.59;;;24.88;42.19
27014;BME280;14556;52.222;4.510;2022-09-02T13:00:16;101184.88;;;24.90;43.28
27014;BME280;14556;52.222;4.510;2022-09-02T13:08:22;101180.88;;;24.77;42.26
27014;BME280;14556;52.222;4.510;2022-09-02T13:16:13;101165.41;;;24.97;39.65
27014;BME280;14556;52.222;4.510;2022-09-02T13:21:53;101170.84;;;24.67;39.63
27014;BME280;14556;52.222;4.510;2022-09-02T13:27:33;101159.19;;;24.86;38.82
27014;BME280;14556;52.222;4.510;2022-09-02T13:33:09;101163.78;;;24.91;40.25
27014;BME280;14556;52.222;4.510;2022-09-02T13:35:39;101149.84;;;24.92;38.86
27014;BME280;14556;52.222;4.510;2022-09-02T13:38:11;101162.91;;;25.01;39.37
27014;BME280;14556;52.222;4.510;2022-09-02T13:40:39;101150.09;;;24.91;39.77
27014;BME280;14556;52.222;4.510;2022-09-02T13:45:38;101146.16;;;25.07;40.82
27014;BME280;14556;52.222;4.510;2022-09-02T13:48:21;101155.22;;;25.03;41.67
27014;BME280;14556;52.222;4.510;2022-09-02T13:50:49;101145.03;;;25.08;39.32
27014;BME280;14556;52.222;4.510;2022-09-02T13:53:35;101149.63;;;25.13;39.42
27014;BME280;14556;52.222;4.510;2022-09-02T13:56:24;101141.66;;;25.17;38.52
27014;BME280;14556;52.222;4.510;2022-09-02T13:58:54;101137.75;;;24.98;38.75
27014;BME280;14556;52.222;4.510;2022-09-02T14:01:29;101140.72;;;25.02;39.54
27014;BME280;14556;52.222;4.510;2022-09-02T14:03:58;101142.28;;;25.08;39.21
27014;BME280;14556;52.222;4.510;2022-09-02T14:06:31;101132.00;;;25.00;36.82
27014;BME280;14556;52.222;4.510;2022-09-02T14:09:00;101121.94;;;24.95;38.14
27014;BME280;14556;52.222;4.510;2022-09-02T14:11:28;101124.84;;;25.04;38.31
27014;BME280;14556;52.222;4.510;2022-09-02T14:13:58;101125.06;;;25.08;38.00
27014;BME280;14556;52.222;4.510;2022-09-02T14:16:33;101126.53;;;25.00;37.86
27014;BME280;14556;52.222;4.510;2022-09-02T14:21:37;101118.56;;;25.04;36.44
27014;BME280;14556;52.222;4.510;2022-09-02T14:24:12;101113.31;;;25.07;37.09
27014;BME280;14556;52.222;4.510;2022-09-02T14:26:43;101114.94;;;25.08;37.39
27014;BME280;14556;52.222;4.510;2022-09-02T14:29:15;101116.41;;;25.01;37.34
27014;BME280;14556;52.222;4.510;2022-09-02T14:31:43;101109.06;;;24.91;36.48
27014;BME280;14556;52.222;4.510;2022-09-02T14:34:41;101110.41;;;24.98;37.01
27014;BME280;14556;52.222;4.510;2022-09-02T14:37:22;101100.84;;;24.96;36.31
27014;BME280;14556;52.222;4.510;2022-09-02T14:40:08;101103.56;;;24.96;36.71
27014;BME280;14556;52.222;4.510;2022-09-02T14:42:50;101088.88;;;24.86;37.54
27014;BME280;14556;52.222;4.510;2022-09-02T14:45:33;101082.00;;;24.89;37.32